createdAt,value
2022-08-18T00:01:45.484Z,22.03
2022-08-18T00:04:35.860Z,22.02
2022-08-18T00:07:08.347Z,21.98
2022-08-18T00:09:39.372Z,21.97
2022-08-18T00:12:18.226Z,21.95
2022-08-18T00:14:47.378Z,22.00
2022-08-18T00:17:17.823Z,21.99
2022-08-18T00:19:48.336Z,21.96
2022-08-18T00:22:20.243Z,21.92
2022-08-18T00:24:54.693Z,21.91
2022-08-18T00:27:30.973Z,21.91
2022-08-18T00:30:02.011Z,21.92
2022-08-18T00:32:34.019Z,21.90
2022-08-18T00:35:15.202Z,21.90
2022-08-18T00:37:43.560Z,21.89
2022-08-18T00:40:15.870Z,21.88
2022-08-18T00:42:50.674Z,21.91
2022-08-18T00:45:24.144Z,21.91
2022-08-18T00:47:52.941Z,21.90
2022-08-18T00:50:32.406Z,21.87
2022-08-18T00:53:40.666Z,21.86
2022-08-18T00:56:15.244Z,21.85
2022-08-18T00:59:05.946Z,21.85
2022-08-18T01:01:35.553Z,21.85
2022-08-18T01:04:16.482Z,21.84
2022-08-18T01:06:58.255Z,21.86
2022-08-18T01:09:26.874Z,21.86
2022-08-18T01:11:56.515Z,21.81
2022-08-18T01:14:25.164Z,21.85
2022-08-18T01:17:11.926Z,21.84
2022-08-18T01:19:58.976Z,21.85
2022-08-18T01:22:38.713Z,21.83
2022-08-18T01:25:28.030Z,21.81
2022-08-18T01:28:00.976Z,21.79
2022-08-18T01:30:31.233Z,21.78
2022-08-18T01:32:59.457Z,21.76
2022-08-18T01:35:28.575Z,21.75
2022-08-18T01:38:05.943Z,21.76
2022-08-18T01:41:27.815Z,21.75
2022-08-18T01:43:22.255Z,21.75
2022-08-18T01:45:50.637Z,21.74
2022-08-18T01:48:18.878Z,21.69
2022-08-18T01:50:49.472Z,21.66
2022-08-18T01:53:19.308Z,21.63
2022-08-18T01:55:47.400Z,21.62
2022-08-18T01:58:15.609Z,21.59
2022-08-18T02:00:43.833Z,21.58
2022-08-18T02:03:14.535Z,21.57
2022-08-18T02:05:50.619Z,21.57
2022-08-18T02:08:19.162Z,21.58
2022-08-18T02:10:47.262Z,21.59
2022-08-18T02:13:15.431Z,21.49
2022-08-18T02:15:43.568Z,21.53
2022-08-18T02:18:46.809Z,21.63
2022-08-18T02:21:12.638Z,21.64
2022-08-18T02:23:44.940Z,21.65
2022-08-18T02:26:23.505Z,21.65
2022-08-18T02:28:52.508Z,21.64
2022-08-18T02:31:24.490Z,21.62
2022-08-18T02:33:53.015Z,21.62
2022-08-18T02:36:23.965Z,21.62
2022-08-18T02:38:58.737Z,21.63
2022-08-18T02:41:29.775Z,21.63
2022-08-18T02:43:58.788Z,21.63
2022-08-18T02:46:29.832Z,21.62
2022-08-18T02:49:00.335Z,21.62
2022-08-18T02:51:28.604Z,21.63
2022-08-18T02:54:00.345Z,21.63
2022-08-18T02:56:39.883Z,21.60
2022-08-18T02:59:15.936Z,21.58
2022-08-18T03:01:48.758Z,21.56
2022-08-18T03:04:26.644Z,21.54
2022-08-18T03:06:59.637Z,21.53
2022-08-18T03:09:29.414Z,21.52
2022-08-18T03:11:58.539Z,21.51
2022-08-18T03:14:26.850Z,21.51
2022-08-18T03:16:55.476Z,21.38
2022-08-18T03:19:28.483Z,21.54
2022-08-18T03:22:02.951Z,21.54
2022-08-18T03:24:33.198Z,21.44
2022-08-18T03:27:06.142Z,21.55
2022-08-18T03:29:35.738Z,21.54
2022-08-18T03:32:06.955Z,21.51
2022-08-18T03:34:35.574Z,21.50
2022-08-18T03:37:04.019Z,21.48
2022-08-18T03:39:32.168Z,21.34
2022-08-18T03:42:02.137Z,21.43
2022-08-18T03:44:34.116Z,21.43
2022-08-18T03:47:05.051Z,21.43
2022-08-18T03:49:34.014Z,21.43
2022-08-18T03:52:03.357Z,21.45
2022-08-18T03:54:32.513Z,21.45
2022-08-18T03:59:46.865Z,21.40
2022-08-18T04:02:15.595Z,21.39
2022-08-18T04:04:43.825Z,21.41
2022-08-18T04:07:17.311Z,21.46
2022-08-18T04:09:45.947Z,21.50
2022-08-18T04:12:17.431Z,21.51
2022-08-18T04:14:49.486Z,21.54
2022-08-18T04:17:24.409Z,21.53
2022-08-18T04:19:54.894Z,21.59
2022-08-18T04:22:25.007Z,21.46
2022-08-18T04:24:53.670Z,21.64
2022-08-18T04:27:22.325Z,21.68
2022-08-18T04:29:50.478Z,21.73
2022-08-18T04:32:19.681Z,21.76
2022-08-18T04:34:47.838Z,21.80
2022-08-18T04:37:17.410Z,21.84
2022-08-18T04:39:45.974Z,21.87
2022-08-18T04:42:15.366Z,21.90
2022-08-18T04:44:43.774Z,21.94
2022-08-18T04:47:13.002Z,21.97
2022-08-18T04:49:41.210Z,22.00
2022-08-18T04:52:40.052Z,22.05
2022-08-18T04:55:10.982Z,22.12
2022-08-18T04:57:39.621Z,22.17
2022-08-18T05:00:09.007Z,22.21
2022-08-18T05:02:37.145Z,22.25
2022-08-18T05:05:06.216Z,22.29
2022-08-18T05:07:34.359Z,22.34
2022-08-18T05:10:02.576Z,22.41
2022-08-18T05:12:30.697Z,22.31
2022-08-18T05:14:58.929Z,22.52
2022-08-18T05:17:30.555Z,22.58
2022-08-18T05:20:00.897Z,22.65
2022-08-18T05:22:31.516Z,22.74
2022-08-18T05:27:46.103Z,22.91
2022-08-18T05:30:15.537Z,22.98
2022-08-18T05:32:50.086Z,23.04
2022-08-18T05:35:37.621Z,23.11
2022-08-18T05:38:33.129Z,23.16
2022-08-18T05:41:13.670Z,23.20
2022-08-18T05:43:52.151Z,23.26
2022-08-18T05:46:34.876Z,23.33
2022-08-18T05:49:03.050Z,23.37
2022-08-18T05:51:41.180Z,23.44
2022-08-18T05:54:28.322Z,23.51
2022-08-18T05:57:00.344Z,23.59
2022-08-18T05:59:38.553Z,23.69
2022-08-18T06:02:13.120Z,23.78
2022-08-18T06:04:55.258Z,23.87
2022-08-18T06:07:33.578Z,23.96
2022-08-18T06:10:05.795Z,24.06
2022-08-18T06:12:37.281Z,24.15
2022-08-18T06:15:31.506Z,24.24
2022-08-18T06:18:30.467Z,24.24
2022-08-18T06:21:11.621Z,24.42
2022-08-18T06:23:51.609Z,24.50
2022-08-18T06:26:34.585Z,24.57
2022-08-18T06:29:23.161Z,24.68
2022-08-18T06:32:23.343Z,24.80
2022-08-18T06:35:11.008Z,24.90
2022-08-18T06:38:25.464Z,25.01
2022-08-18T06:41:40.808Z,25.09
2022-08-18T06:44:07.289Z,25.18
2022-08-18T06:46:45.043Z,25.25
2022-08-18T06:49:28.899Z,25.36
2022-08-18T06:51:57.295Z,25.44
2022-08-18T06:54:29.455Z,25.52
2022-08-18T06:56:58.944Z,25.60
2022-08-18T06:59:28.971Z,25.67
2022-08-18T07:02:14.729Z,25.75
2022-08-18T07:04:59.618Z,25.79
2022-08-18T07:07:39.411Z,25.82
2022-08-18T07:10:34.685Z,25.89
2022-08-18T07:13:16.482Z,25.98
2022-08-18T07:15:45.885Z,26.03
2022-08-18T07:18:21.058Z,26.07
2022-08-18T07:20:59.117Z,26.15
2022-08-18T07:23:34.168Z,26.25
2022-08-18T07:26:02.294Z,26.36
2022-08-18T07:28:41.971Z,26.46
2022-08-18T07:31:17.249Z,26.57
2022-08-18T07:34:14.129Z,26.68
2022-08-18T07:36:53.342Z,26.73
2022-08-18T07:39:31.931Z,26.80
2022-08-18T07:42:37.298Z,26.90
2022-08-18T07:45:18.237Z,26.93
2022-08-18T07:47:55.091Z,27.01
2022-08-18T07:50:57.449Z,27.06
2022-08-18T07:53:55.573Z,27.14
2022-08-18T07:56:45.922Z,27.20
2022-08-18T07:59:25.498Z,27.24
2022-08-18T08:02:01.318Z,27.29
2022-08-18T08:05:02.053Z,27.38
2022-08-18T08:07:37.698Z,27.53
2022-08-18T08:10:31.223Z,27.68
2022-08-18T08:13:53.631Z,27.76
2022-08-18T08:16:25.466Z,27.82
2022-08-18T08:19:49.403Z,27.87
2022-08-18T08:22:38.194Z,27.95
2022-08-18T08:25:44.505Z,27.91
2022-08-18T08:28:23.077Z,28.01
2022-08-18T08:31:36.766Z,28.04
2022-08-18T08:34:06.231Z,28.16
2022-08-18T08:36:39.744Z,28.18
2022-08-18T08:39:21.910Z,28.24
2022-08-18T08:41:57.573Z,28.39
2022-08-18T08:44:59.212Z,28.45
2022-08-18T08:47:52.236Z,28.55
2022-08-18T08:50:24.968Z,28.66
2022-08-18T08:52:59.485Z,28.71
2022-08-18T08:55:31.583Z,28.80
2022-08-18T08:58:24.714Z,28.97
2022-08-18T09:03:46.611Z,29.51
2022-08-18T09:06:30.619Z,29.80
2022-08-18T09:09:17.025Z,30.13
2022-08-18T09:12:12.387Z,30.33
2022-08-18T09:15:19.181Z,30.56
2022-08-18T09:18:24.214Z,30.37
2022-08-18T09:21:06.268Z,30.21
2022-08-18T09:23:44.344Z,30.26
2022-08-18T09:26:39.916Z,30.47
2022-08-18T09:29:46.761Z,30.80
2022-08-18T09:32:22.969Z,31.07
2022-08-18T09:35:07.143Z,31.33
2022-08-18T09:37:41.385Z,31.53
2022-08-18T09:41:01.142Z,31.72
2022-08-18T09:43:39.470Z,32.05
2022-08-18T09:46:12.391Z,32.39
2022-08-18T09:48:43.200Z,32.70
2022-08-18T09:51:35.809Z,33.09
2022-08-18T09:54:14.733Z,33.50
2022-08-18T09:56:54.321Z,33.83
2022-08-18T10:00:02.890Z,34.05
2022-08-18T10:02:38.291Z,34.30
2022-08-18T10:05:16.549Z,34.33
2022-08-18T10:07:50.133Z,34.42
2022-08-18T10:11:09.071Z,34.79
2022-08-18T10:14:07.246Z,35.33
2022-08-18T10:19:57.810Z,35.98
2022-08-18T10:22:38.627Z,35.96
2022-08-18T10:25:22.953Z,36.12
2022-08-18T10:27:58.532Z,36.54
2022-08-18T10:30:31.136Z,36.64
2022-08-18T10:33:17.737Z,36.42
2022-08-18T10:35:57.570Z,36.38
2022-08-18T10:38:39.099Z,36.57
2022-08-18T10:41:26.185Z,36.89
2022-08-18T10:43:57.636Z,37.14
2022-08-18T10:46:33.145Z,37.26
2022-08-18T10:49:17.386Z,37.36
2022-08-18T10:52:00.032Z,37.47
2022-08-18T10:54:29.374Z,37.66
2022-08-18T10:57:19.376Z,37.65
2022-08-18T11:00:18.760Z,37.71
2022-08-18T11:03:13.990Z,37.59
2022-08-18T11:05:35.799Z,37.45
2022-08-18T11:08:15.988Z,37.55
2022-08-18T11:13:47.270Z,37.95
2022-08-18T11:16:54.269Z,37.98
2022-08-18T11:19:23.275Z,38.13
2022-08-18T11:21:53.289Z,38.19
2022-08-18T11:24:25.197Z,38.25
2022-08-18T11:26:56.354Z,38.36
2022-08-18T11:32:46.777Z,38.63
2022-08-18T11:35:25.232Z,38.80
2022-08-18T11:38:02.515Z,39.07
2022-08-18T11:41:10.413Z,38.83
2022-08-18T11:43:41.596Z,38.86
2022-08-18T11:46:38.934Z,38.82
2022-08-18T11:49:24.455Z,39.07
2022-08-18T11:52:03.433Z,39.15
2022-08-18T11:54:50.306Z,38.82
2022-08-18T11:57:46.561Z,38.80
2022-08-18T12:00:42.470Z,38.96
2022-08-18T12:03:20.196Z,39.22
2022-08-18T12:05:58.486Z,39.14
2022-08-18T12:08:57.173Z,38.72
2022-08-18T12:11:33.206Z,38.44
2022-08-18T12:14:32.639Z,38.34
2022-08-18T12:17:04.906Z,38.02
2022-08-18T12:19:34.858Z,38.02
2022-08-18T12:22:18.531Z,38.07
2022-08-18T12:24:48.364Z,38.09
2022-08-18T12:27:36.067Z,38.06
2022-08-18T12:30:05.783Z,38.17
2022-08-18T12:32:47.002Z,38.10
2022-08-18T12:35:21.869Z,38.13
2022-08-18T12:38:00.059Z,38.32
2022-08-18T12:40:40.111Z,38.44
2022-08-18T12:43:08.407Z,38.72
2022-08-18T12:45:38.194Z,39.06
2022-08-18T12:48:07.810Z,39.18
2022-08-18T12:53:29.964Z,39.17
2022-08-18T12:56:20.031Z,39.14
2022-08-18T12:58:49.890Z,39.35
2022-08-18T13:01:19.749Z,39.36
2022-08-18T13:03:52.767Z,39.35
2022-08-18T13:06:41.325Z,39.50
2022-08-18T13:09:35.253Z,39.73
2022-08-18T13:12:17.354Z,39.87
2022-08-18T13:14:46.882Z,40.04
2022-08-18T13:17:30.414Z,40.18
2022-08-18T13:20:09.554Z,40.18
2022-08-18T13:22:40.637Z,39.84
2022-08-18T13:25:13.291Z,39.49
2022-08-18T13:28:02.601Z,39.55
2022-08-18T13:30:32.508Z,39.39
2022-08-18T13:33:05.373Z,39.27
2022-08-18T13:35:44.570Z,39.43
2022-08-18T13:38:20.804Z,39.58
2022-08-18T13:40:51.267Z,39.39
2022-08-18T13:43:26.065Z,39.50
2022-08-18T13:45:56.124Z,39.83
2022-08-18T13:48:25.767Z,40.02
2022-08-18T13:50:56.659Z,40.03
2022-08-18T13:53:27.440Z,39.95
2022-08-18T13:56:00.146Z,40.06
2022-08-18T13:58:29.626Z,40.08
2022-08-18T14:01:39.497Z,39.92
2022-08-18T14:03:53.205Z,39.98
2022-08-18T14:06:22.687Z,39.81
2022-08-18T14:08:53.721Z,39.83
2022-08-18T14:11:32.945Z,39.96
2022-08-18T14:14:02.307Z,40.05
2022-08-18T14:16:31.959Z,40.01
2022-08-18T14:19:18.856Z,40.07
2022-08-18T14:22:12.431Z,40.16
2022-08-18T14:25:01.243Z,40.24
2022-08-18T14:27:35.086Z,40.13
2022-08-18T14:30:14.828Z,40.27
2022-08-18T14:32:49.131Z,40.39
2022-08-18T14:36:04.096Z,40.33
2022-08-18T14:38:09.117Z,40.00
2022-08-18T14:40:41.692Z,39.76
2022-08-18T14:43:14.263Z,39.65
2022-08-18T14:45:48.879Z,39.52
2022-08-18T14:48:20.376Z,39.62
2022-08-18T14:50:52.650Z,39.76
2022-08-18T14:53:23.100Z,39.62
2022-08-18T14:55:53.424Z,39.48
2022-08-18T14:58:28.842Z,39.34
2022-08-18T15:00:59.347Z,39.06
2022-08-18T15:03:31.505Z,39.17
2022-08-18T15:06:04.794Z,39.29
2022-08-18T15:08:35.891Z,39.27
2022-08-18T15:11:11.834Z,39.44
2022-08-18T15:13:43.587Z,39.45
2022-08-18T15:16:15.206Z,39.43
2022-08-18T15:18:44.862Z,39.29
2022-08-18T15:21:38.857Z,39.08
2022-08-18T15:24:26.868Z,38.90
2022-08-18T15:27:05.972Z,38.76
2022-08-18T15:29:41.594Z,38.67
2022-08-18T15:32:16.929Z,38.71
2022-08-18T15:34:47.153Z,38.68
2022-08-18T15:37:24.171Z,38.64
2022-08-18T15:40:02.930Z,38.66
2022-08-18T15:42:31.309Z,38.82
2022-08-18T15:45:11.514Z,38.88
2022-08-18T15:47:43.274Z,38.64
2022-08-18T15:50:25.255Z,38.60
2022-08-18T15:53:00.756Z,38.57
2022-08-18T15:55:35.874Z,38.21
2022-08-18T15:58:10.794Z,37.65
2022-08-18T16:00:45.474Z,37.21
2022-08-18T16:03:16.047Z,36.83
2022-08-18T16:05:53.223Z,36.67
2022-08-18T16:08:24.623Z,36.67
2022-08-18T16:10:53.785Z,36.63
2022-08-18T16:13:23.283Z,36.52
2022-08-18T16:15:51.448Z,36.50
2022-08-18T16:18:21.404Z,36.41
2022-08-18T16:20:50.608Z,36.30
2022-08-18T16:23:21.250Z,36.20
2022-08-18T16:25:49.478Z,35.98
2022-08-18T16:28:17.632Z,35.62
2022-08-18T16:30:47.302Z,35.16
2022-08-18T16:33:15.527Z,34.76
2022-08-18T16:35:45.404Z,34.36
2022-08-18T16:38:13.944Z,34.04
2022-08-18T16:40:42.124Z,33.80
2022-08-18T16:43:11.800Z,33.55
2022-08-18T16:45:43.149Z,33.21
2022-08-18T16:48:14.209Z,32.91
2022-08-18T16:50:45.437Z,32.63
2022-08-18T16:53:13.545Z,32.27
2022-08-18T16:55:43.425Z,31.96
2022-08-18T16:58:30.480Z,31.74
2022-08-18T17:01:18.757Z,31.45
2022-08-18T17:04:13.373Z,31.21
2022-08-18T17:06:47.339Z,31.04
2022-08-18T17:09:18.371Z,30.88
2022-08-18T17:11:51.419Z,30.72
2022-08-18T17:14:26.641Z,30.52
2022-08-18T17:16:55.596Z,30.32
2022-08-18T17:19:26.316Z,30.18
2022-08-18T17:21:54.571Z,30.05
2022-08-18T17:24:31.097Z,29.90
2022-08-18T17:27:20.367Z,29.76
2022-08-18T17:30:16.113Z,29.59
2022-08-18T17:32:50.003Z,29.35
2022-08-18T17:35:28.955Z,29.15
2022-08-18T17:38:02.518Z,29.00
2022-08-18T17:40:39.190Z,28.87
2022-08-18T17:43:12.571Z,28.77
2022-08-18T17:45:40.995Z,28.69
2022-08-18T17:48:16.394Z,28.56
2022-08-18T17:51:13.174Z,28.46
2022-08-18T17:53:41.445Z,28.35
2022-08-18T17:56:19.526Z,28.25
2022-08-18T17:58:55.935Z,28.13
2022-08-18T18:01:26.147Z,28.02
2022-08-18T18:03:54.695Z,27.91
2022-08-18T18:06:34.906Z,27.83
2022-08-18T18:09:08.555Z,27.74
2022-08-18T18:11:41.395Z,27.69
2022-08-18T18:14:30.103Z,27.64
2022-08-18T18:17:14.558Z,27.58
2022-08-18T18:19:45.023Z,27.52
2022-08-18T18:22:28.499Z,27.44
2022-08-18T18:25:04.788Z,27.25
2022-08-18T18:27:33.204Z,27.25
2022-08-18T18:30:06.835Z,27.20
2022-08-18T18:32:58.955Z,27.16
2022-08-18T18:35:53.348Z,27.13
2022-08-18T18:38:49.102Z,27.08
2022-08-18T18:41:17.197Z,27.00
2022-08-18T18:43:48.475Z,26.95
2022-08-18T18:46:23.365Z,26.92
2022-08-18T18:49:10.116Z,26.90
2022-08-18T18:51:50.586Z,26.90
2022-08-18T18:54:40.563Z,26.88
2022-08-18T18:57:17.975Z,26.88
2022-08-18T19:02:36.782Z,26.87
2022-08-18T19:05:20.569Z,26.86
2022-08-18T19:07:48.556Z,26.84
2022-08-18T19:10:26.551Z,26.79
2022-08-18T19:12:59.864Z,26.76
2022-08-18T19:15:33.368Z,26.73
2022-08-18T19:18:24.970Z,26.70
2022-08-18T19:22:02.142Z,26.59
2022-08-18T19:24:00.151Z,26.67
2022-08-18T19:26:38.351Z,26.64
2022-08-18T19:29:14.285Z,26.63
2022-08-18T19:31:47.900Z,26.62
2022-08-18T19:34:31.015Z,26.61
2022-08-18T19:37:13.907Z,26.43
2022-08-18T19:40:17.503Z,26.59
2022-08-18T19:42:58.715Z,26.59
2022-08-18T19:45:53.284Z,26.58
2022-08-18T19:48:51.551Z,26.59
2022-08-18T19:51:34.160Z,26.61
2022-08-18T19:54:33.252Z,26.63
2022-08-18T19:57:24.606Z,26.63
2022-08-18T20:00:18.409Z,26.63
2022-08-18T20:03:33.880Z,26.63
2022-08-18T20:06:33.863Z,26.62
2022-08-18T20:09:15.397Z,26.60
2022-08-18T20:12:02.273Z,26.61
2022-08-18T20:14:35.761Z,26.64
2022-08-18T20:17:07.177Z,26.65
2022-08-18T20:19:43.446Z,26.59
2022-08-18T20:22:29.470Z,26.57
2022-08-18T20:25:06.192Z,26.55
2022-08-18T20:27:59.085Z,26.51
2022-08-18T20:30:53.037Z,26.49
2022-08-18T20:33:24.236Z,26.43
2022-08-18T20:36:13.111Z,26.37
2022-08-18T20:38:47.363Z,26.27
2022-08-18T20:41:47.314Z,26.16
2022-08-18T20:44:29.661Z,26.09
2022-08-18T20:47:19.141Z,26.04
2022-08-18T20:50:22.325Z,26.01
2022-08-18T20:53:30.306Z,25.93
2022-08-18T20:56:32.712Z,25.86
2022-08-18T20:59:19.997Z,25.81
2022-08-18T21:02:07.874Z,25.76
2022-08-18T21:04:57.918Z,25.66
2022-08-18T21:07:39.823Z,25.58
2022-08-18T21:10:18.214Z,25.53
2022-08-18T21:12:53.975Z,25.50
2022-08-18T21:15:26.633Z,25.50
2022-08-18T21:17:58.748Z,25.51
2022-08-18T21:20:28.421Z,25.53
2022-08-18T21:23:14.306Z,25.53
2022-08-18T21:25:53.834Z,25.53
2022-08-18T21:28:25.294Z,25.53
2022-08-18T21:31:41.773Z,25.54
2022-08-18T21:33:53.898Z,25.54
2022-08-18T21:36:25.573Z,25.53
2022-08-18T21:39:05.380Z,25.53
2022-08-18T21:41:42.285Z,25.54
2022-08-18T21:44:16.242Z,25.53
2022-08-18T21:46:46.109Z,25.54
2022-08-18T21:49:25.647Z,25.53
2022-08-18T21:51:54.751Z,25.54
2022-08-18T21:54:28.698Z,25.55
2022-08-18T21:57:22.058Z,25.55
2022-08-18T22:00:14.758Z,25.54
2022-08-18T22:02:43.485Z,25.52
2022-08-18T22:05:12.996Z,25.50
2022-08-18T22:07:48.193Z,25.48
2022-08-18T22:10:47.686Z,25.47
2022-08-18T22:13:44.032Z,25.44
2022-08-18T22:16:23.532Z,25.42
2022-08-18T22:18:52.016Z,25.35
2022-08-18T22:21:32.677Z,25.32
2022-08-18T22:24:19.572Z,25.30
2022-08-18T22:26:49.219Z,25.30
2022-08-18T22:29:37.086Z,25.29
2022-08-18T22:32:13.967Z,25.28
2022-08-18T22:34:42.550Z,25.26
2022-08-18T22:37:13.624Z,25.26
2022-08-18T22:39:54.784Z,25.25
2022-08-18T22:42:26.557Z,25.23
2022-08-18T22:44:54.890Z,25.20
2022-08-18T22:47:24.150Z,25.13
2022-08-18T22:49:52.466Z,25.19
2022-08-18T22:52:29.736Z,25.19
2022-08-18T22:55:08.007Z,25.19
2022-08-18T22:57:37.583Z,25.18
2022-08-18T23:00:13.087Z,25.17
2022-08-18T23:02:42.037Z,25.16
2022-08-18T23:05:11.249Z,25.13
2022-08-18T23:07:39.518Z,25.10
2022-08-18T23:10:14.297Z,25.07
2022-08-18T23:12:44.579Z,25.06
2022-08-18T23:15:13.757Z,25.03
2022-08-18T23:17:43.589Z,24.97
2022-08-18T23:20:17.851Z,24.95
2022-08-18T23:22:48.445Z,24.95
2022-08-18T23:25:17.209Z,24.95
2022-08-18T23:27:45.506Z,24.94
2022-08-18T23:30:15.312Z,24.91
2022-08-18T23:32:43.770Z,24.86
2022-08-18T23:35:11.931Z,24.83
2022-08-18T23:37:41.352Z,24.82
2022-08-18T23:40:17.230Z,24.80
2022-08-18T23:42:46.636Z,24.74
2022-08-18T23:45:15.706Z,24.62
2022-08-18T23:47:44.026Z,24.60
2022-08-18T23:50:12.260Z,24.67
2022-08-18T23:52:41.160Z,24.65
2022-08-18T23:55:13.511Z,24.63
2022-08-18T23:57:41.666Z,24.63
